Time;durP1;ratioP1;P1;durP2;ratioP2;P2;SDS_P1;SDS_P2;PMS_P1;PMS_P2;Temp;Humidity;BMP_temperature;BMP_pressure;BME280_temperature;BME280_humidity;BME280_pressure;Samples;Min_cycle;Max_cycle;Signal;HPM_P1;HPM_P2
2023/12/20 00:01:23;;;;;;;4.80;3.30;;;;;;;5.63;100.00;100012.97;105154;1257;69222;-62
2023/12/20 00:03:52;;;;;;;5.20;3.50;;;;;;;5.62;100.00;100012.46;105228;1257;74016;-62
2023/12/20 00:06:20;;;;;;;4.40;3.20;;;;;;;5.61;100.00;100004.67;105157;1256;81891;-62
2023/12/20 00:08:48;;;;;;;6.40;3.60;;;;;;;5.62;100.00;100000.48;105180;1256;73393;-62
2023/12/20 00:11:16;;;;;;;4.70;3.20;;;;;;;5.60;100.00;99988.75;105124;1257;69120;-62
2023/12/20 00:13:45;;;;;;;5.10;3.10;;;;;;;5.60;100.00;99992.22;105119;1261;69196;-62
2023/12/20 00:16:18;;;;;;;4.70;2.80;;;;;;;5.60;100.00;99989.98;105197;1257;72873;-62
2023/12/20 00:18:46;;;;;;;3.30;2.40;;;;;;;5.59;100.00;99993.25;105183;1257;81806;-62
2023/12/20 00:21:14;;;;;;;4.70;2.90;;;;;;;5.60;100.00;99991.52;105225;1257;72089;-62
2023/12/20 00:23:43;;;;;;;3.10;2.30;;;;;;;5.60;100.00;99989.45;105101;1260;69166;-63
2023/12/20 00:26:11;;;;;;;4.20;2.20;;;;;;;5.59;100.00;99982.70;105135;1257;69111;-63
2023/12/20 00:28:39;;;;;;;2.70;2.30;;;;;;;5.61;100.00;99980.77;105110;1257;73951;-63
2023/12/20 00:31:07;;;;;;;4.20;2.30;;;;;;;5.62;100.00;99973.29;105142;1261;81262;-63
2023/12/20 00:33:35;;;;;;;3.10;2.10;;;;;;;5.61;100.00;99971.39;105194;1256;71337;-63
2023/12/20 00:36:05;;;;;;;2.50;2.10;;;;;;;5.60;100.00;99971.42;105201;1260;69113;-62
2023/12/20 00:38:33;;;;;;;3.50;2.10;;;;;;;5.58;100.00;99964.89;105225;1260;69134;-61
2023/12/20 00:41:01;;;;;;;2.30;1.90;;;;;;;5.55;100.00;99963.21;105164;1257;73311;-61
2023/12/20 00:43:30;;;;;;;3.50;1.80;;;;;;;5.52;100.00;99964.33;105210;1259;81494;-61
2023/12/20 00:45:59;;;;;;;2.40;1.80;;;;;;;5.51;100.00;99964.84;105094;1257;71652;-62
2023/12/20 00:48:30;;;;;;;2.30;1.50;;;;;;;5.50;100.00;99961.95;105211;1260;69188;-61
2023/12/20 00:50:58;;;;;;;2.00;1.50;;;;;;;5.48;100.00;99957.50;105154;1262;69182;-62
2023/12/20 00:53:27;;;;;;;3.80;1.80;;;;;;;5.47;100.00;99952.84;105322;1256;73741;-62
2023/12/20 00:55:55;;;;;;;2.20;1.40;;;;;;;5.45;100.00;99962.05;105123;1261;81511;-61
2023/12/20 00:58:23;;;;;;;2.10;1.60;;;;;;;5.43;100.00;99960.20;105257;1257;71232;-62
2023/12/20 01:00:52;;;;;;;2.20;1.50;;;;;;;5.43;100.00;99952.59;105193;1256;69122;-62
2023/12/20 01:03:20;;;;;;;1.40;1.30;;;;;;;5.41;100.00;99946.40;105166;1262;69250;-62
2023/12/20 01:05:49;;;;;;;1.90;1.40;;;;;;;5.40;100.00;99950.92;105165;1257;75536;-62
2023/12/20 01:08:17;;;;;;;1.90;1.50;;;;;;;5.39;100.00;99955.61;105102;1260;82575;-63
2023/12/20 01:10:46;;;;;;;2.10;1.20;;;;;;;5.38;100.00;99953.73;105116;1257;70447;-62
2023/12/20 01:13:15;;;;;;;2.00;1.40;;;;;;;5.36;100.00;99947.00;105127;1257;69122;-62
2023/12/20 01:15:43;;;;;;;1.90;1.50;;;;;;;5.34;100.00;99950.00;105198;1257;69084;-62
2023/12/20 01:18:12;;;;;;;2.90;1.60;;;;;;;5.33;100.00;99949.69;105189;1260;73845;-62
2023/12/20 01:20:40;;;;;;;2.10;1.90;;;;;;;5.32;100.00;99943.13;105132;1260;83593;-62
2023/12/20 01:23:08;;;;;;;1.90;1.70;;;;;;;5.31;100.00;99954.23;105181;1257;71039;-62
2023/12/20 01:25:36;;;;;;;1.90;1.60;;;;;;;5.29;100.00;99949.95;105179;1256;69156;-62
2023/12/20 01:28:05;;;;;;;2.30;1.50;;;;;;;5.28;100.00;99951.36;105091;1260;69176;-62
2023/12/20 01:30:33;;;;;;;1.80;1.30;;;;;;;5.26;100.00;99949.14;105195;1256;73699;-62
2023/12/20 01:33:02;;;;;;;1.70;1.40;;;;;;;5.25;100.00;99937.21;105135;1260;82763;-62
2023/12/20 01:35:30;;;;;;;2.00;1.50;;;;;;;5.24;100.00;99921.33;105110;1257;72063;-61
2023/12/20 01:37:58;;;;;;;2.10;1.60;;;;;;;5.22;100.00;99930.02;105134;1257;69166;-62
2023/12/20 01:40:26;;;;;;;2.80;1.70;;;;;;;5.21;100.00;99936.27;105179;1260;69225;-61
2023/12/20 01:42:59;;;;;;;2.70;1.80;;;;;;;5.20;100.00;99936.45;105142;1257;73921;-61
2023/12/20 01:45:28;;;;;;;2.00;1.40;;;;;;;5.20;100.00;99925.57;105174;1260;82058;-62
2023/12/20 01:47:57;;;;;;;2.30;1.70;;;;;;;5.19;100.00;99920.21;105146;1256;70442;-61
2023/12/20 01:50:27;;;;;;;1.90;1.40;;;;;;;5.17;100.00;99914.70;105118;1261;69125;-62
2023/12/20 01:52:57;;;;;;;1.80;1.50;;;;;;;5.17;100.00;99915.42;105149;1256;69171;-62
2023/12/20 01:55:27;;;;;;;2.90;1.30;;;;;;;5.14;100.00;99915.98;105123;1257;74981;-62
2023/12/20 01:57:56;;;;;;;2.10;1.70;;;;;;;5.14;100.00;99915.48;105133;1256;80553;-63
2023/12/20 02:00:27;;;;;;;4.30;1.60;;;;;;;5.14;100.00;99914.79;105126;1257;71799;-62
2023/12/20 02:02:55;;;;;;;2.60;1.50;;;;;;;5.13;100.00;99908.73;105155;1261;69122;-62
2023/12/20 02:05:25;;;;;;;1.80;1.30;;;;;;;5.14;100.00;99911.15;105186;1257;69554;-61
2023/12/20 02:07:53;;;;;;;3.50;1.90;;;;;;;5.12;100.00;99903.05;105175;1261;74086;-62
2023/12/20 02:10:22;;;;;;;1.70;1.40;;;;;;;5.10;100.00;99901.02;105213;1260;82927;-62
2023/12/20 02:12:51;;;;;;;4.30;1.70;;;;;;;5.10;100.00;99898.08;105196;1257;72188;-62
2023/12/20 02:15:19;;;;;;;1.90;1.40;;;;;;;5.10;100.00;99898.42;105136;1256;69156;-62
2023/12/20 02:17:48;;;;;;;2.10;1.70;;;;;;;5.09;100.00;99889.08;105134;1259;69189;-62
2023/12/20 02:20:16;;;;;;;2.70;1.40;;;;;;;5.07;100.00;99887.55;105138;1256;73999;-62
2023/12/20 02:22:45;;;;;;;1.90;1.70;;;;;;;5.06;100.00;99887.08;105306;1256;82687;-62
2023/12/20 02:25:13;;;;;;;2.10;1.70;;;;;;;5.06;100.00;99885.02;105140;1260;73024;-63
2023/12/20 02:27:41;;;;;;;2.20;1.70;;;;;;;5.05;100.00;99885.03;105265;1258;69115;-63
2023/12/20 02:30:11;;;;;;;1.80;1.40;;;;;;;5.05;100.00;99881.73;105175;1261;69197;-62
2023/12/20 02:32:39;;;;;;;1.90;1.50;;;;;;;5.04;100.00;99886.27;105199;1257;75842;-63
2023/12/20 02:35:08;;;;;;;1.60;1.50;;;;;;;5.03;100.00;99883.34;105162;1256;81674;-63
2023/12/20 02:37:36;;;;;;;2.80;1.60;;;;;;;5.01;100.00;99881.81;105200;1257;71546;-62
2023/12/20 02:40:05;;;;;;;2.90;1.50;;;;;;;4.99;100.00;99881.00;105091;1260;69196;-62
2023/12/20 02:42:33;;;;;;;2.20;1.60;;;;;;;4.98;100.00;99878.08;105103;1257;69245;-62
2023/12/20 02:45:01;;;;;;;2.80;1.50;;;;;;;4.97;100.00;99874.11;105123;1257;72730;-62
2023/12/20 02:47:30;;;;;;;1.90;1.50;;;;;;;4.97;100.00;99870.48;105148;1260;81852;-63
2023/12/20 02:49:58;;;;;;;2.00;1.60;;;;;;;4.98;100.00;99869.09;105192;1258;71884;-63
2023/12/20 02:52:28;;;;;;;3.00;1.60;;;;;;;4.96;100.00;99868.95;105153;1257;69128;-63
2023/12/20 02:54:56;;;;;;;1.60;1.30;;;;;;;4.95;100.00;99869.66;105176;1260;69243;-62
2023/12/20 02:57:24;;;;;;;1.60;1.00;;;;;;;4.94;100.00;99866.23;105105;1257;74373;-63
2023/12/20 02:59:53;;;;;;;3.10;1.40;;;;;;;4.94;100.00;99874.88;105148;1260;81787;-62
2023/12/20 03:02:21;;;;;;;2.20;1.40;;;;;;;4.93;100.00;99871.79;105181;1257;72372;-63
2023/12/20 03:04:49;;;;;;;1.90;1.20;;;;;;;4.93;100.00;99870.40;105132;1256;69128;-63
2023/12/20 03:07:17;;;;;;;1.80;1.50;;;;;;;4.93;100.00;99867.28;105150;1260;69134;-63
2023/12/20 03:09:46;;;;;;;1.70;1.30;;;;;;;4.92;100.00;99864.38;105142;1256;72905;-63
2023/12/20 03:12:34;;;;;;;2.00;1.40;;;;;;;4.91;100.00;99863.00;105150;1260;81390;-63
2023/12/20 03:15:02;;;;;;;1.90;1.30;;;;;;;4.89;100.00;99855.60;105130;1257;73248;-63
2023/12/20 03:17:30;;;;;;;2.60;1.10;;;;;;;4.89;100.00;99854.21;105144;1256;69189;-63
2023/12/20 03:19:59;;;;;;;1.40;1.20;;;;;;;4.90;100.00;99853.33;105115;1256;69195;-63
2023/12/20 03:22:27;;;;;;;1.90;1.30;;;;;;;4.89;100.00;99854.76;105206;1258;73658;-63
2023/12/20 03:24:55;;;;;;;2.50;1.30;;;;;;;4.87;100.00;99852.70;105114;1260;82850;-63
2023/12/20 03:27:24;;;;;;;1.80;1.30;;;;;;;4.85;100.00;99851.70;105130;1259;71982;-63
2023/12/20 03:29:52;;;;;;;2.00;1.30;;;;;;;4.84;100.00;99851.20;105129;1257;69150;-63
2023/12/20 03:32:20;;;;;;;1.70;1.20;;;;;;;4.83;100.00;99849.67;105107;1260;69203;-63
2023/12/20 03:34:48;;;;;;;1.10;1.00;;;;;;;4.84;100.00;99846.36;105121;1257;74000;-63
2023/12/20 03:37:16;;;;;;;1.70;1.30;;;;;;;4.82;100.00;99847.45;105200;1257;82027;-63
2023/12/20 03:39:45;;;;;;;1.80;1.20;;;;;;;4.81;100.00;99849.19;105166;1256;71980;-63
2023/12/20 03:42:13;;;;;;;1.70;1.30;;;;;;;4.81;100.00;99851.98;105122;1258;69085;-63
2023/12/20 03:44:41;;;;;;;1.60;1.10;;;;;;;4.81;100.00;99851.44;105117;1260;69228;-63
2023/12/20 03:47:09;;;;;;;2.50;1.70;;;;;;;4.81;100.00;99859.41;105158;1256;73596;-63
2023/12/20 03:49:38;;;;;;;1.50;1.20;;;;;;;4.80;100.00;99854.77;105135;1256;81724;-63
2023/12/20 03:52:07;;;;;;;1.30;1.00;;;;;;;4.80;100.00;99855.63;105340;1257;70952;-63
2023/12/20 03:54:35;;;;;;;2.30;1.10;;;;;;;4.79;100.00;99852.17;105160;1257;69106;-63
2023/12/20 03:57:04;;;;;;;1.40;1.10;;;;;;;4.79;100.00;99851.15;105379;1256;69221;-63
2023/12/20 03:59:36;;;;;;;2.60;1.50;;;;;;;4.80;100.00;99853.05;105216;1261;72930;-63
2023/12/20 04:02:05;;;;;;;1.90;1.20;;;;;;;4.80;100.00;99848.55;105156;1260;81972;-62
2023/12/20 04:04:33;;;;;;;1.80;1.10;;;;;;;4.78;100.00;99847.19;105180;1257;70567;-63
2023/12/20 04:07:01;;;;;;;2.00;1.00;;;;;;;4.79;100.00;99852.36;105086;1260;69173;-62
2023/12/20 04:09:30;;;;;;;1.40;1.00;;;;;;;4.78;100.00;99854.47;105160;1260;69174;-63
2023/12/20 04:11:58;;;;;;;1.10;0.90;;;;;;;4.77;100.00;99855.87;105259;1256;74100;-62
2023/12/20 04:14:26;;;;;;;1.60;1.10;;;;;;;4.77;100.00;99853.30;105121;1256;82329;-62
2023/12/20 04:16:54;;;;;;;1.30;1.00;;;;;;;4.77;100.00;99852.76;105200;1260;72827;-62
2023/12/20 04:19:22;;;;;;;1.50;1.00;;;;;;;4.76;100.00;99852.09;105145;1257;69094;-62
2023/12/20 04:21:51;;;;;;;1.30;1.00;;;;;;;4.74;100.00;99853.17;105198;1260;69147;-61
2023/12/20 04:24:19;;;;;;;1.40;1.30;;;;;;;4.73;100.00;99857.52;105086;1257;73649;-62
2023/12/20 04:26:47;;;;;;;1.60;1.20;;;;;;;4.71;100.00;99855.98;105141;1260;81928;-62
2023/12/20 04:29:15;;;;;;;2.30;1.00;;;;;;;4.70;100.00;99853.27;105106;1259;71662;-62
2023/12/20 04:31:43;;;;;;;1.70;1.40;;;;;;;4.67;100.00;99852.10;105092;1256;70748;-61
2023/12/20 04:34:12;;;;;;;1.30;0.90;;;;;;;4.65;100.00;99850.05;105162;1260;69225;-62
2023/12/20 04:36:40;;;;;;;1.20;1.10;;;;;;;4.66;100.00;99849.55;105135;1256;73626;-62
2023/12/20 04:39:08;;;;;;;1.50;1.20;;;;;;;4.64;100.00;99846.10;105143;1260;81566;-62
2023/12/20 04:41:36;;;;;;;1.60;1.30;;;;;;;4.63;100.00;99843.71;105146;1256;72018;-62
2023/12/20 04:44:06;;;;;;;1.10;1.00;;;;;;;4.63;100.00;99840.44;105117;1260;69119;-62
2023/12/20 04:46:34;;;;;;;1.50;1.40;;;;;;;4.63;100.00;99835.05;105200;1260;69240;-62
2023/12/20 04:49:02;;;;;;;1.90;1.40;;;;;;;4.61;100.00;99835.61;105144;1257;74929;-62
2023/12/20 04:51:33;;;;;;;2.40;1.50;;;;;;;4.61;100.00;99835.64;105185;1260;82758;-62
2023/12/20 04:54:02;;;;;;;1.60;1.30;;;;;;;4.60;100.00;99826.13;105216;1257;71084;-63
2023/12/20 04:56:30;;;;;;;2.00;1.50;;;;;;;4.59;100.00;99821.64;105173;1260;69218;-63
2023/12/20 04:58:58;;;;;;;1.60;1.50;;;;;;;4.59;100.00;99820.96;105134;1260;69302;-62
2023/12/20 05:01:27;;;;;;;1.50;1.40;;;;;;;4.58;100.00;99824.45;105188;1256;73542;-62
2023/12/20 05:03:55;;;;;;;1.80;1.60;;;;;;;4.57;100.00;99824.83;105177;1260;82162;-62
2023/12/20 05:06:24;;;;;;;2.10;1.90;;;;;;;4.56;100.00;99826.56;105105;1256;71474;-62
2023/12/20 05:08:52;;;;;;;2.80;1.90;;;;;;;4.55;100.00;99828.66;105150;1260;69202;-62
2023/12/20 05:11:21;;;;;;;5.60;2.00;;;;;;;4.55;100.00;99825.73;105173;1257;69268;-62
2023/12/20 05:13:49;;;;;;;1.80;1.70;;;;;;;4.56;100.00;99822.42;105193;1256;73720;-62
2023/12/20 05:16:18;;;;;;;1.90;1.70;;;;;;;4.55;100.00;99819.50;105142;1260;81953;-63
2023/12/20 05:18:49;;;;;;;2.20;2.00;;;;;;;4.55;100.00;99823.13;105126;1260;71505;-63
2023/12/20 05:21:17;;;;;;;;;;;;;;;4.55;100.00;99823.99;105311;1261;69282;-63
2023/12/20 05:23:46;;;;;;;2.10;1.50;;;;;;;4.55;100.00;99826.42;105229;1261;69175;-64
2023/12/20 05:26:14;;;;;;;1.90;1.70;;;;;;;4.55;100.00;99827.63;105401;1260;74356;-64
2023/12/20 05:28:42;;;;;;;2.00;1.60;;;;;;;4.54;100.00;99824.70;105153;1258;81889;-64
2023/12/20 05:31:11;;;;;;;1.90;1.70;;;;;;;4.54;100.00;99829.39;105152;1257;73011;-61
2023/12/20 05:33:39;;;;;;;2.40;1.90;;;;;;;4.53;100.00;99829.23;105124;1260;69153;-62
2023/12/20 05:36:11;;;;;;;2.40;2.20;;;;;;;4.52;100.00;99829.76;105240;1256;69603;-61
2023/12/20 05:38:39;;;;;;;3.00;2.00;;;;;;;4.51;100.00;99834.44;105159;1260;74234;-61
2023/12/20 05:41:08;;;;;;;2.80;2.10;;;;;;;4.51;100.00;99835.16;105161;1261;81619;-61
2023/12/20 05:43:36;;;;;;;2.30;2.10;;;;;;;4.50;100.00;99837.25;105149;1256;72830;-61
2023/12/20 05:46:04;;;;;;;3.60;2.30;;;;;;;4.50;100.00;99833.63;105113;1260;69122;-61
2023/12/20 05:48:33;;;;;;;2.70;2.10;;;;;;;4.50;100.00;99839.68;105154;1261;69222;-62
2023/12/20 05:51:01;;;;;;;2.50;2.10;;;;;;;4.50;100.00;99839.32;105119;1257;74089;-62
2023/12/20 05:53:29;;;;;;;2.50;2.00;;;;;;;4.49;100.00;99841.08;105112;1257;82872;-61
2023/12/20 05:55:57;;;;;;;2.40;1.90;;;;;;;4.48;100.00;99834.68;105149;1257;73108;-61
2023/12/20 05:58:25;;;;;;;2.70;2.00;;;;;;;4.49;100.00;99835.55;105085;1260;69719;-62
2023/12/20 06:00:53;;;;;;;2.10;1.90;;;;;;;4.49;100.00;99831.90;105128;1261;69207;-61
2023/12/20 06:03:22;;;;;;;2.00;1.80;;;;;;;4.50;100.00;99831.38;105106;1256;73577;-62
2023/12/20 06:05:50;;;;;;;2.20;2.00;;;;;;;4.50;100.00;99827.89;105175;1260;82808;-61
2023/12/20 06:08:21;;;;;;;3.10;2.00;;;;;;;4.49;100.00;99829.66;105161;1257;71686;-61
2023/12/20 06:10:49;;;;;;;1.80;1.70;;;;;;;4.49;100.00;99828.62;105182;1257;69182;-61
2023/12/20 06:13:17;;;;;;;3.00;1.80;;;;;;;4.49;100.00;99830.17;105187;1260;69269;-61
2023/12/20 06:15:45;;;;;;;2.60;2.20;;;;;;;4.50;100.00;99835.02;105238;1261;74070;-61
2023/12/20 06:18:14;;;;;;;3.50;2.20;;;;;;;4.48;100.00;99839.70;105133;1260;81931;-61
2023/12/20 06:20:42;;;;;;;2.60;2.00;;;;;;;4.48;100.00;99839.36;105198;1256;70157;-61
2023/12/20 06:23:11;;;;;;;2.90;2.00;;;;;;;4.48;100.00;99843.52;105216;1256;69159;-61
2023/12/20 06:25:39;;;;;;;4.40;1.90;;;;;;;4.48;100.00;99848.02;105130;1256;69198;-62
2023/12/20 06:28:10;;;;;;;2.80;1.90;;;;;;;4.47;100.00;99851.31;105128;1256;73788;-61
2023/12/20 06:30:38;;;;;;;2.50;1.80;;;;;;;4.47;100.00;99852.52;105164;1260;81553;-61
2023/12/20 06:33:11;;;;;;;3.20;1.70;;;;;;;4.47;100.00;99850.29;105147;1262;72923;-61
2023/12/20 06:35:39;;;;;;;3.10;1.80;;;;;;;4.48;100.00;99855.46;105158;1261;69211;-61
2023/12/20 06:38:09;;;;;;;2.30;1.70;;;;;;;4.48;100.00;99850.95;105181;1260;69193;-62
2023/12/20 06:40:37;;;;;;;1.80;1.60;;;;;;;4.48;100.00;99851.48;105169;1260;72625;-61
2023/12/20 06:43:06;;;;;;;2.20;2.00;;;;;;;4.49;100.00;99853.01;105173;1261;82413;-61
2023/12/20 06:45:48;;;;;;;2.50;1.80;;;;;;;4.47;100.00;99848.02;105153;1259;72389;-60
2023/12/20 06:48:16;;;;;;;2.30;1.70;;;;;;;4.48;100.00;99851.83;105109;1257;69119;-61
2023/12/20 06:50:46;;;;;;;2.30;2.00;;;;;;;4.48;100.00;99849.23;105142;1256;69291;-61
2023/12/20 06:53:14;;;;;;;2.50;1.90;;;;;;;4.47;100.00;99855.48;105292;1262;73672;-61
2023/12/20 06:55:42;;;;;;;2.30;1.90;;;;;;;4.47;100.00;99855.64;105124;1261;81454;-63
2023/12/20 06:58:11;;;;;;;2.30;1.80;;;;;;;4.48;100.00;99855.09;105351;1256;71813;-61
2023/12/20 07:00:39;;;;;;;2.30;1.70;;;;;;;4.48;100.00;99864.45;105217;1260;69168;-61
2023/12/20 07:03:09;;;;;;;4.20;2.10;;;;;;;4.48;100.00;99866.33;105146;1256;69205;-61
2023/12/20 07:05:37;;;;;;;2.30;1.60;;;;;;;4.48;100.00;99867.73;105183;1259;74951;-60
2023/12/20 07:08:06;;;;;;;2.90;1.80;;;;;;;4.48;100.00;99866.17;105198;1260;81451;-61
2023/12/20 07:10:34;;;;;;;1.80;1.70;;;;;;;4.49;100.00;99864.95;105188;1261;71738;-60
2023/12/20 07:13:03;;;;;;;1.60;1.50;;;;;;;4.49;100.00;99868.94;105095;1260;69124;-60
2023/12/20 07:15:31;;;;;;;2.50;1.70;;;;;;;4.49;100.00;99874.98;105198;1261;69225;-60
2023/12/20 07:18:00;;;;;;;1.90;1.50;;;;;;;4.49;100.00;99871.52;105148;1257;74276;-60
2023/12/20 07:20:29;;;;;;;2.80;1.80;;;;;;;4.50;100.00;99876.19;105206;1260;81462;-60
2023/12/20 07:22:57;;;;;;;3.30;2.30;;;;;;;4.48;100.00;99877.06;105104;1257;71912;-60
2023/12/20 07:25:25;;;;;;;2.40;1.90;;;;;;;4.49;100.00;99878.96;105220;1256;69178;-60
2023/12/20 07:27:53;;;;;;;2.80;1.70;;;;;;;4.49;100.00;99877.23;105172;1260;69116;-60
2023/12/20 07:30:22;;;;;;;1.50;1.40;;;;;;;4.51;100.00;99874.95;105156;1257;74968;-60
2023/12/20 07:32:50;;;;;;;1.70;1.60;;;;;;;4.51;100.00;99876.32;105154;1261;81234;-60
2023/12/20 07:35:18;;;;;;;1.40;1.30;;;;;;;4.52;100.00;99875.97;105111;1256;71745;-60
2023/12/20 07:37:46;;;;;;;1.60;1.50;;;;;;;4.52;100.00;99871.46;105122;1256;69125;-61
2023/12/20 07:40:17;;;;;;;1.60;1.20;;;;;;;4.52;100.00;99876.65;105184;1261;69195;-61
2023/12/20 07:42:45;;;;;;;1.90;1.60;;;;;;;4.52;100.00;99878.21;105188;1256;74954;-61
2023/12/20 07:45:13;;;;;;;3.10;1.90;;;;;;;4.53;100.00;99884.09;105150;1257;82783;-61
2023/12/20 07:47:41;;;;;;;5.90;3.60;;;;;;;4.53;100.00;99886.67;105146;1257;71783;-61
2023/12/20 07:50:10;;;;;;;2.90;1.90;;;;;;;4.53;100.00;99889.60;105156;1257;69179;-61
2023/12/20 07:52:39;;;;;;;2.60;1.80;;;;;;;4.54;100.00;99892.35;105190;1260;69119;-61
2023/12/20 07:55:07;;;;;;;3.10;1.70;;;;;;;4.53;100.00;99893.93;105147;1262;73664;-61
2023/12/20 07:57:36;;;;;;;1.10;1.00;;;;;;;4.54;100.00;99893.40;105186;1260;81418;-61
2023/12/20 08:00:05;;;;;;;2.70;1.70;;;;;;;4.53;100.00;99892.71;105180;1256;71813;-61
2023/12/20 08:02:33;;;;;;;4.00;2.30;;;;;;;4.53;100.00;99895.99;105195;1262;69102;-60
2023/12/20 08:05:01;;;;;;;2.10;1.50;;;;;;;4.56;100.00;99899.41;105125;1257;69279;-61
2023/12/20 08:07:29;;;;;;;3.40;1.70;;;;;;;4.55;100.00;99895.98;105157;1257;72268;-62
2023/12/20 08:09:58;;;;;;;3.00;1.70;;;;;;;4.54;100.00;99898.92;105145;1260;81553;-61
2023/12/20 08:12:27;;;;;;;3.30;1.90;;;;;;;4.55;100.00;99897.52;105167;1256;74282;-60
2023/12/20 08:14:56;;;;;;;1.00;0.90;;;;;;;4.56;100.00;99887.30;105165;1260;69150;-61
2023/12/20 08:17:25;;;;;;;4.30;2.00;;;;;;;4.56;100.00;99892.65;105138;1260;69206;-60
2023/12/20 08:19:53;;;;;;;2.10;1.30;;;;;;;4.57;100.00;99890.75;105142;1256;75651;-60
2023/12/20 08:22:22;;;;;;;0.80;0.60;;;;;;;4.59;100.00;99893.13;105106;1260;81582;-61
2023/12/20 08:24:50;;;;;;;2.10;1.20;;;;;;;4.60;100.00;99892.76;105324;1257;71858;-61
2023/12/20 08:27:18;;;;;;;5.00;2.20;;;;;;;4.60;100.00;99892.57;105166;1260;69131;-60
2023/12/20 08:29:47;;;;;;;3.40;1.80;;;;;;;4.59;100.00;99896.56;105368;1261;69168;-61
2023/12/20 08:32:15;;;;;;;3.40;1.60;;;;;;;4.59;100.00;99902.62;105208;1257;73712;-60
2023/12/20 08:34:43;;;;;;;2.70;1.30;;;;;;;4.60;100.00;99906.77;105159;1256;80758;-61
2023/12/20 08:37:11;;;;;;;1.30;1.00;;;;;;;4.62;100.00;99910.52;105134;1257;72496;-60
2023/12/20 08:39:40;;;;;;;3.20;1.70;;;;;;;4.62;100.00;99911.23;105160;1257;69154;-60
2023/12/20 08:42:12;;;;;;;1.80;1.10;;;;;;;4.64;100.00;99919.14;105179;1257;69125;-60
2023/12/20 08:44:40;;;;;;;4.00;1.40;;;;;;;4.65;100.00;99922.40;105169;1257;74234;-60
2023/12/20 08:47:12;;;;;;;2.20;0.90;;;;;;;4.70;100.00;99922.48;105186;1260;82670;-60
2023/12/20 08:49:41;;;;;;;1.80;0.70;;;;;;;4.76;100.00;99920.80;105147;1256;72444;-60
2023/12/20 08:52:09;;;;;;;0.90;0.70;;;;;;;4.80;100.00;99922.45;105208;1257;69211;-60
2023/12/20 08:54:38;;;;;;;7.40;2.90;;;;;;;4.85;100.00;99930.13;105142;1256;69180;-60
2023/12/20 08:57:06;;;;;;;4.00;1.00;;;;;;;4.85;100.00;99926.31;105144;1257;75936;-60
2023/12/20 08:59:34;;;;;;;1.60;0.80;;;;;;;4.87;100.00;99933.90;105208;1257;80193;-60
2023/12/20 09:02:03;;;;;;;2.10;0.70;;;;;;;4.89;100.00;99934.36;105124;1260;73151;-60
2023/12/20 09:04:31;;;;;;;4.00;1.20;;;;;;;4.90;100.00;99937.46;105178;1258;69199;-60
2023/12/20 09:06:59;;;;;;;1.70;1.00;;;;;;;4.92;100.00;99933.80;105136;1256;69121;-60
2023/12/20 09:09:28;;;;;;;3.10;1.40;;;;;;;4.92;100.00;99940.71;105133;1256;74295;-60
2023/12/20 09:11:56;;;;;;;5.20;1.80;;;;;;;4.89;100.00;99942.86;105123;1260;81794;-60
2023/12/20 09:14:24;;;;;;;4.20;1.90;;;;;;;4.89;100.00;99943.38;105116;1256;70350;-60
2023/12/20 09:16:55;;;;;;;4.60;1.70;;;;;;;4.87;100.00;99945.14;105178;1259;69104;-61
2023/12/20 09:19:23;;;;;;;3.10;1.10;;;;;;;4.86;100.00;99948.09;105162;1256;69214;-60
2023/12/20 09:21:52;;;;;;;2.90;1.20;;;;;;;4.84;100.00;99947.30;105185;1256;74227;-60
2023/12/20 09:24:20;;;;;;;3.70;1.50;;;;;;;4.83;100.00;99944.02;105099;1262;81636;-60
2023/12/20 09:26:48;;;;;;;2.40;1.00;;;;;;;4.84;100.00;99937.77;105149;1260;71682;-60
2023/12/20 09:29:18;;;;;;;2.70;0.80;;;;;;;4.89;100.00;99924.52;105152;1260;69161;-60
2023/12/20 09:31:46;;;;;;;2.60;0.90;;;;;;;4.92;100.00;99918.55;105173;1257;69074;-60
2023/12/20 09:34:16;;;;;;;2.90;0.90;;;;;;;4.90;100.00;99921.90;105209;1257;74166;-60
2023/12/20 09:36:47;;;;;;;3.00;1.20;;;;;;;4.90;100.00;99921.89;105179;1257;81056;-60
2023/12/20 09:39:20;;;;;;;4.30;1.50;;;;;;;4.92;100.00;99927.20;105189;1256;72104;-60
2023/12/20 09:42:05;;;;;;;2.70;1.20;;;;;;;4.92;100.00;99926.86;105146;1258;69199;-61
2023/12/20 09:44:36;;;;;;;3.30;1.50;;;;;;;4.97;100.00;99927.45;105224;1261;69183;-61
2023/12/20 09:47:05;;;;;;;3.70;1.20;;;;;;;5.17;100.00;99927.19;105126;1260;73718;-60
2023/12/20 09:49:34;;;;;;;1.60;1.40;;;;;;;5.26;100.00;99922.13;105205;1262;81513;-61
2023/12/20 09:52:04;;;;;;;2.40;0.70;;;;;;;5.28;100.00;99921.05;105115;1262;71522;-60
2023/12/20 09:54:33;;;;;;;;;;;;;;;5.21;100.00;99916.88;105189;1261;69209;-61
2023/12/20 09:57:01;;;;;;;1.90;0.90;;;;;;;5.17;100.00;99907.64;105241;1257;69211;-60
2023/12/20 09:59:29;;;;;;;2.30;0.70;;;;;;;5.19;100.00;99902.72;105325;1262;75974;-59
2023/12/20 10:01:57;;;;;;;1.80;0.80;;;;;;;5.32;100.00;99898.95;105185;1262;81704;-60
2023/12/20 10:04:26;;;;;;;2.50;0.70;;;;;;;5.57;100.00;99897.30;105133;1257;73140;-60
2023/12/20 10:07:03;;;;;;;1.60;0.80;;;;;;;5.79;100.00;99893.14;105121;1260;69162;-60
2023/12/20 10:09:36;;;;;;;2.70;0.80;;;;;;;6.01;100.00;99887.39;105154;1257;69123;-60
2023/12/20 10:12:06;;;;;;;3.50;0.90;;;;;;;6.01;100.00;99883.55;105164;1256;73957;-60
2023/12/20 10:14:34;;;;;;;3.10;0.60;;;;;;;6.02;100.00;99878.86;105147;1262;81396;-60
2023/12/20 10:17:03;;;;;;;4.10;1.60;;;;;;;5.99;100.00;99878.25;105167;1262;71612;-60
2023/12/20 10:19:32;;;;;;;2.30;0.70;;;;;;;5.86;100.00;99873.02;105201;1261;69186;-60
2023/12/20 10:22:04;;;;;;;1.70;0.60;;;;;;;5.76;100.00;99877.25;105224;1257;69110;-60
2023/12/20 10:24:32;;;;;;;4.00;0.70;;;;;;;5.66;100.00;99870.23;105174;1262;73797;-60
2023/12/20 10:27:05;;;;;;;3.20;0.60;;;;;;;5.64;100.00;99864.71;105135;1262;81458;-60
2023/12/20 10:29:35;;;;;;;6.80;0.90;;;;;;;5.66;100.00;99859.82;105169;1257;71996;-60
2023/12/20 10:32:23;;;;;;;5.00;1.00;;;;;;;5.67;100.00;99860.50;105178;1257;69255;-60
2023/12/20 10:34:56;;;;;;;2.10;0.40;;;;;;;5.67;100.00;99856.15;105184;1261;69311;-60
2023/12/20 10:37:25;;;;;;;3.90;0.60;;;;;;;5.66;100.00;99851.15;105184;1259;75544;-60
2023/12/20 10:39:57;;;;;;;3.10;1.00;;;;;;;5.70;100.00;99852.27;105202;1260;82041;-60
2023/12/20 10:42:27;;;;;;;3.50;0.60;;;;;;;5.76;100.00;99854.88;105180;1256;72636;-60
2023/12/20 10:44:56;;;;;;;2.70;0.70;;;;;;;5.80;100.00;99851.82;105141;1262;69640;-60
2023/12/20 10:47:25;;;;;;;4.00;1.00;;;;;;;5.80;100.00;99850.77;105165;1257;69253;-60
2023/12/20 10:49:54;;;;;;;4.70;1.20;;;;;;;5.76;100.00;99850.20;105164;1257;73460;-60
2023/12/20 10:52:25;;;;;;;4.70;1.10;;;;;;;5.79;100.00;99851.35;105150;1257;82178;-60
2023/12/20 10:54:53;;;;;;;4.40;1.00;;;;;;;5.80;100.00;99849.58;105041;1261;215835;-60
2023/12/20 10:57:22;;;;;;;4.10;0.90;;;;;;;5.83;100.00;99843.63;105163;1262;69154;-60
2023/12/20 10:59:52;;;;;;;3.20;0.80;;;;;;;5.85;100.00;99838.35;105110;1262;69189;-60
2023/12/20 11:02:21;;;;;;;3.50;0.60;;;;;;;5.91;100.00;99839.08;105138;1257;75003;-61
2023/12/20 11:05:27;;;;;;;4.30;0.80;;;;;;;6.05;100.00;99832.45;105201;1260;82138;-61
2023/12/20 11:08:05;;;;;;;2.40;0.80;;;;;;;6.13;100.00;99824.08;105139;1261;72026;-61
2023/12/20 11:10:42;;;;;;;4.20;0.90;;;;;;;6.27;100.00;99823.34;105160;1262;69271;-60
2023/12/20 11:13:17;;;;;;;6.10;1.20;;;;;;;6.36;100.00;99821.17;105121;1261;69205;-60
2023/12/20 11:15:46;;;;;;;3.00;0.80;;;;;;;6.34;100.00;99822.30;105157;1270;72926;-60
2023/12/20 11:18:14;;;;;;;2.30;0.80;;;;;;;6.25;100.00;99811.78;105201;1256;81568;-60
2023/12/20 11:20:43;;;;;;;2.00;1.00;;;;;;;6.13;100.00;99809.16;105127;1256;72197;-60
2023/12/20 11:23:11;;;;;;;5.10;1.50;;;;;;;5.98;100.00;99809.07;105151;1259;69122;-60
2023/12/20 11:25:52;;;;;;;5.70;0.90;;;;;;;5.84;100.00;99813.42;105274;1260;69138;-61
2023/12/20 11:28:22;;;;;;;2.20;0.70;;;;;;;5.76;100.00;99809.61;105167;1256;74781;-62
2023/12/20 11:30:55;;;;;;;5.30;0.60;;;;;;;5.73;100.00;99800.35;105350;1262;82050;-60
2023/12/20 11:33:48;;;;;;;4.60;0.90;;;;;;;5.71;100.00;99796.25;105217;1256;72140;-61
2023/12/20 11:36:20;;;;;;;5.20;1.00;;;;;;;5.63;100.00;99796.80;105216;1260;69206;-60